Time;durP1;ratioP1;P1;durP2;ratioP2;P2;SDS_P1;SDS_P2;PMS_P1;PMS_P2;Temp;Humidity;BMP_temperature;BMP_pressure;BME280_temperature;BME280_humidity;BME280_pressure;Samples;Min_cycle;Max_cycle;Signal;HPM_P1;HPM_P2
2024/03/01 00:01:50;;;;;;;3.30;2.10;;;17.60;64.90;;;;;;6024042;23;20177;-86
2024/03/01 00:04:17;;;;;;;3.28;2.10;;;17.60;65.10;;;;;;6048692;23;20576;-86
2024/03/01 00:06:43;;;;;;;3.53;2.42;;;17.50;65.10;;;;;;6025092;23;20149;-87
2024/03/01 00:09:09;;;;;;;3.22;2.30;;;17.60;64.70;;;;;;6048349;23;20168;-86
2024/03/01 00:11:59;;;;;;;3.08;2.22;;;17.60;64.70;;;;;;6024699;23;20460;-87
2024/03/01 00:14:24;;;;;;;2.72;2.33;;;17.50;64.90;;;;;;6052221;23;20149;-87
2024/03/01 00:16:50;;;;;;;2.45;2.00;;;17.50;64.90;;;;;;6024326;23;20159;-87
2024/03/01 00:19:16;;;;;;;2.95;2.40;;;17.50;64.80;;;;;;6048506;23;20133;-87
2024/03/01 00:21:43;;;;;;;2.58;2.05;;;17.50;64.70;;;;;;6048029;23;20179;-87
2024/03/01 00:24:08;;;;;;;2.13;1.70;;;17.50;64.70;;;;;;6047954;23;20145;-88
2024/03/01 00:26:34;;;;;;;2.97;1.98;;;17.50;64.90;;;;;;6047791;23;20431;-86
2024/03/01 00:29:00;;;;;;;5.10;2.40;;;17.50;64.70;;;;;;6047455;23;20188;-87
2024/03/01 00:31:30;;;;;;;2.47;2.17;;;17.50;64.80;;;;;;6046311;23;20569;-87
2024/03/01 00:33:56;;;;;;;2.70;2.25;;;17.50;64.70;;;;;;5997367;23;20156;-87
2024/03/01 00:36:22;;;;;;;3.20;2.28;;;17.50;64.80;;;;;;6022960;23;20203;-86
2024/03/01 00:38:49;;;;;;;3.35;2.90;;;17.50;65.00;;;;;;6048222;23;20137;-87
2024/03/01 00:41:19;;;;;;;2.92;2.40;;;17.40;64.70;;;;;;6097392;23;20260;-87
2024/03/01 00:43:45;;;;;;;4.07;2.25;;;17.50;64.80;;;;;;5999640;23;20187;-87
2024/03/01 00:46:12;;;;;;;3.00;2.17;;;17.50;64.80;;;;;;6047738;23;20145;-87
2024/03/01 00:48:40;;;;;;;4.78;2.40;;;17.50;64.90;;;;;;5999830;23;20185;-87
2024/03/01 00:51:06;;;;;;;3.05;2.40;;;17.50;64.80;;;;;;6072005;23;20449;-87
2024/03/01 00:53:33;;;;;;;4.82;2.40;;;17.50;64.70;;;;;;6047896;23;20137;-87
2024/03/01 00:56:00;;;;;;;2.42;2.10;;;17.50;64.70;;;;;;6023050;23;20288;-88
2024/03/01 00:58:26;;;;;;;4.97;2.47;;;17.50;64.80;;;;;;6071459;23;20193;-88
2024/03/01 01:00:52;;;;;;;3.97;2.67;;;17.50;64.40;;;;;;6047890;23;20648;-87
2024/03/01 01:03:18;;;;;;;4.10;2.50;;;17.50;64.80;;;;;;6047883;23;20133;-86
2024/03/01 01:05:44;;;;;;;4.13;2.60;;;17.50;64.70;;;;;;6024298;23;20150;-87
2024/03/01 01:08:12;;;;;;;3.92;2.67;;;17.50;64.50;;;;;;6071400;23;20244;-87
2024/03/01 01:10:39;;;;;;;4.22;2.40;;;17.50;64.70;;;;;;5999416;23;20573;-87
2024/03/01 01:13:07;;;;;;;3.70;2.47;;;17.50;64.60;;;;;;5976100;23;20156;-86
2024/03/01 01:15:33;;;;;;;3.80;2.53;;;17.50;64.50;;;;;;6047924;23;20153;-86
2024/03/01 01:17:59;;;;;;;3.47;2.47;;;17.50;64.70;;;;;;6047662;23;20171;-86
2024/03/01 01:20:25;;;;;;;5.07;2.67;;;17.50;64.60;;;;;;6047429;23;20153;-88
2024/03/01 01:22:51;;;;;;;3.80;2.60;;;17.50;64.70;;;;;;6023714;23;20255;-87
2024/03/01 01:25:18;;;;;;;3.42;2.53;;;17.40;64.90;;;;;;6047646;23;20568;-86
2024/03/01 01:27:45;;;;;;;3.05;2.50;;;17.50;64.50;;;;;;6047839;23;20175;-87
2024/03/01 01:30:11;;;;;;;3.80;2.40;;;17.50;64.60;;;;;;6047238;23;20132;-86
2024/03/01 01:32:37;;;;;;;3.28;2.70;;;17.50;64.90;;;;;;6071622;23;20151;-86
2024/03/01 01:35:03;;;;;;;7.93;2.75;;;17.40;64.70;;;;;;6024010;23;20477;-88
2024/03/01 01:37:29;;;;;;;3.30;2.50;;;17.50;64.90;;;;;;6071484;23;20161;-86
2024/03/01 01:39:55;;;;;;;3.20;2.50;;;17.40;64.60;;;;;;6047043;23;20476;-87
2024/03/01 01:42:21;;;;;;;3.47;2.75;;;17.50;64.80;;;;;;6023719;23;20184;-87
2024/03/01 01:44:47;;;;;;;4.15;2.50;;;17.40;64.70;;;;;;6023717;23;20149;-86
2024/03/01 01:47:14;;;;;;;3.80;2.60;;;17.40;64.60;;;;;;6047350;23;20149;-87
2024/03/01 01:49:41;;;;;;;4.38;3.00;;;17.50;64.50;;;;;;6024490;23;20167;-86
2024/03/01 01:52:07;;;;;;;4.93;3.00;;;17.40;64.60;;;;;;6071748;23;20137;-87
2024/03/01 01:54:35;;;;;;;4.43;2.50;;;17.40;64.40;;;;;;6095792;23;20135;-88
2024/03/01 01:57:01;;;;;;;3.67;2.72;;;17.50;64.40;;;;;;5999278;23;20565;-87
2024/03/01 01:59:28;;;;;;;3.50;2.60;;;17.50;64.80;;;;;;6047417;23;20161;-86
2024/03/01 02:01:54;;;;;;;4.53;2.72;;;17.40;64.60;;;;;;6045939;23;20496;-87
2024/03/01 02:04:22;;;;;;;4.28;2.83;;;17.50;64.40;;;;;;6047658;23;20172;-87
2024/03/01 02:06:49;;;;;;;4.43;2.75;;;17.50;64.30;;;;;;6021400;23;20161;-86
2024/03/01 02:09:18;;;;;;;4.78;3.05;;;17.50;64.60;;;;;;6021692;23;20651;-87
2024/03/01 02:11:44;;;;;;;3.60;2.63;;;17.50;64.60;;;;;;6046994;23;20148;-86
2024/03/01 02:14:10;;;;;;;4.78;2.85;;;17.40;64.70;;;;;;6047078;23;20149;-87
2024/03/01 02:16:36;;;;;;;3.50;2.60;;;17.40;64.60;;;;;;6071252;23;20733;-86
2024/03/01 02:19:04;;;;;;;3.63;2.78;;;17.40;64.50;;;;;;6047417;23;20531;-87
2024/03/01 02:21:33;;;;;;;3.92;2.60;;;17.50;64.70;;;;;;6046953;23;20211;-87
2024/03/01 02:23:59;;;;;;;4.10;2.78;;;17.40;64.50;;;;;;6047506;23;20220;-87
2024/03/01 02:26:26;;;;;;;5.20;2.90;;;17.40;64.60;;;;;;6071246;23;20149;-85
2024/03/01 02:28:52;;;;;;;4.18;2.78;;;17.40;64.70;;;;;;6047063;23;20148;-87
2024/03/01 02:31:18;;;;;;;3.70;2.92;;;17.40;64.60;;;;;;6046931;23;20145;-86
2024/03/01 02:33:44;;;;;;;4.18;2.70;;;17.40;64.40;;;;;;6070838;23;20632;-88
2024/03/01 02:36:10;;;;;;;4.55;2.95;;;17.30;64.70;;;;;;6070606;23;20192;-86
2024/03/01 02:38:36;;;;;;;2.75;2.47;;;17.40;64.90;;;;;;6047565;23;20133;-87
2024/03/01 02:41:03;;;;;;;3.47;2.45;;;17.30;65.00;;;;;;6071065;23;20188;-87
2024/03/01 02:43:29;;;;;;;3.13;2.47;;;17.30;64.90;;;;;;6023573;23;20191;-88
2024/03/01 02:45:55;;;;;;;3.63;2.88;;;17.30;65.10;;;;;;6098656;23;20557;-86
2024/03/01 02:48:21;;;;;;;4.18;2.63;;;17.30;64.70;;;;;;6048568;23;20457;-86
2024/03/01 02:50:46;;;;;;;3.90;2.70;;;17.30;65.00;;;;;;6049113;23;20137;-86
2024/03/01 02:53:12;;;;;;;3.83;2.67;;;17.40;64.90;;;;;;6047995;23;20549;-87
2024/03/01 02:55:38;;;;;;;3.63;2.83;;;17.40;65.00;;;;;;6023079;23;20453;-86
2024/03/01 02:58:05;;;;;;;3.88;3.00;;;17.30;64.80;;;;;;6047959;23;20565;-86
2024/03/01 03:00:34;;;;;;;3.83;2.88;;;17.30;64.90;;;;;;5999488;23;20596;-86
2024/03/01 03:02:59;;;;;;;4.32;2.90;;;17.30;64.80;;;;;;6050157;23;20161;-86
2024/03/01 03:05:26;;;;;;;4.00;2.63;;;17.30;64.60;;;;;;6048639;23;20271;-87
2024/03/01 03:07:52;;;;;;;4.18;2.92;;;17.30;64.60;;;;;;6048761;23;20231;-86
2024/03/01 03:10:18;;;;;;;3.78;3.00;;;17.40;64.80;;;;;;6073199;23;20140;-87
2024/03/01 03:12:44;;;;;;;3.50;2.83;;;17.30;64.70;;;;;;6025041;23;20160;-87
2024/03/01 03:15:10;;;;;;;3.40;2.60;;;17.30;64.60;;;;;;6026014;23;20581;-87
2024/03/01 03:17:36;;;;;;;4.80;2.90;;;17.40;64.40;;;;;;6048272;23;20157;-88
2024/03/01 03:20:09;;;;;;;3.90;2.85;;;17.40;64.70;;;;;;6048795;23;20252;-86
2024/03/01 03:22:38;;;;;;;4.45;3.05;;;17.30;64.80;;;;;;6027633;23;20279;-87
2024/03/01 03:25:05;;;;;;;3.30;2.88;;;17.30;64.70;;;;;;6025410;23;20156;-86
2024/03/01 03:27:32;;;;;;;4.05;2.83;;;17.30;64.60;;;;;;6024561;23;20141;-88
2024/03/01 03:29:58;;;;;;;4.13;3.03;;;17.30;64.70;;;;;;6048162;23;20589;-86
2024/03/01 03:32:24;;;;;;;4.63;3.03;;;17.30;64.90;;;;;;6025365;23;20153;-86
2024/03/01 03:34:50;;;;;;;4.30;2.80;;;17.40;65.00;;;;;;6072838;23;20137;-86
2024/03/01 03:37:16;;;;;;;3.95;2.55;;;17.30;64.80;;;;;;6048844;23;20454;-86
2024/03/01 03:39:42;;;;;;;4.55;3.08;;;17.30;65.10;;;;;;6048404;23;20208;-88
2024/03/01 03:42:07;;;;;;;4.47;3.05;;;17.30;64.60;;;;;;6024379;23;20180;-86
2024/03/01 03:44:34;;;;;;;4.80;2.92;;;17.30;64.90;;;;;;6048504;23;20173;-87
2024/03/01 03:47:05;;;;;;;4.72;3.00;;;17.30;65.00;;;;;;6047370;23;20161;-85
2024/03/01 03:49:30;;;;;;;4.35;2.78;;;17.20;65.10;;;;;;6024319;23;20153;-86
2024/03/01 03:51:56;;;;;;;4.07;2.90;;;17.30;65.00;;;;;;6048900;23;20305;-86
2024/03/01 03:54:24;;;;;;;5.47;3.65;;;17.30;64.50;;;;;;6047434;23;20141;-86
2024/03/01 03:56:49;;;;;;;3.63;2.85;;;17.30;64.40;;;;;;6071824;23;20282;-87
2024/03/01 03:59:15;;;;;;;4.07;3.00;;;17.30;64.60;;;;;;6024401;23;20180;-88
2024/03/01 04:01:41;;;;;;;4.13;3.00;;;17.30;64.90;;;;;;6047332;23;20176;-87
2024/03/01 04:04:07;;;;;;;4.75;3.10;;;17.30;65.10;;;;;;6047828;23;20152;-88
2024/03/01 04:06:33;;;;;;;4.63;3.15;;;17.20;65.00;;;;;;6024400;23;20149;-86
2024/03/01 04:08:58;;;;;;;4.78;3.50;;;17.30;64.90;;;;;;6048358;23;20133;-86
2024/03/01 04:11:25;;;;;;;4.13;3.25;;;17.30;64.90;;;;;;6024209;23;20149;-87
2024/03/01 04:13:51;;;;;;;6.93;3.45;;;17.30;65.00;;;;;;6071836;23;20157;-87
2024/03/01 04:16:18;;;;;;;4.35;2.97;;;17.30;65.00;;;;;;6048085;23;20156;-88
2024/03/01 04:18:43;;;;;;;3.50;3.03;;;17.30;64.90;;;;;;6048244;23;20139;-87
2024/03/01 04:21:10;;;;;;;4.07;3.08;;;17.30;64.70;;;;;;6024549;23;20243;-87
2024/03/01 04:23:35;;;;;;;4.38;3.00;;;17.20;65.10;;;;;;6024290;23;20148;-86
2024/03/01 04:26:07;;;;;;;4.47;2.88;;;17.20;65.10;;;;;;6048298;23;20446;-86
2024/03/01 04:28:40;;;;;;;3.95;2.90;;;17.20;64.90;;;;;;6096931;23;20133;-87
2024/03/01 04:31:08;;;;;;;4.10;3.03;;;17.20;65.20;;;;;;5979651;23;20153;-87
2024/03/01 04:33:38;;;;;;;4.38;3.13;;;17.20;65.10;;;;;;5998469;23;20160;-86
2024/03/01 04:36:04;;;;;;;5.07;3.38;;;17.20;65.20;;;;;;6070409;23;20144;-86
2024/03/01 04:38:30;;;;;;;5.00;3.15;;;17.20;65.20;;;;;;6024036;23;20149;-88
2024/03/01 04:40:55;;;;;;;4.90;3.10;;;17.20;65.10;;;;;;6046805;23;20216;-87
2024/03/01 04:43:21;;;;;;;4.72;3.30;;;17.20;65.10;;;;;;6023010;23;20217;-87
2024/03/01 04:45:53;;;;;;;4.82;3.33;;;17.20;65.30;;;;;;6023175;23;20145;-88
2024/03/01 04:48:19;;;;;;;4.82;2.97;;;17.20;64.90;;;;;;5977020;23;20478;-86
2024/03/01 04:50:45;;;;;;;4.13;3.13;;;17.30;64.80;;;;;;6071883;23;20625;-87
2024/03/01 04:53:11;;;;;;;5.25;3.30;;;17.20;65.20;;;;;;6047097;23;20168;-87
2024/03/01 04:55:37;;;;;;;4.32;3.55;;;17.20;65.10;;;;;;6071671;23;20140;-87
2024/03/01 04:58:03;;;;;;;4.68;3.17;;;17.20;65.20;;;;;;6047628;23;20188;-87
2024/03/01 05:00:29;;;;;;;4.13;3.13;;;17.20;65.10;;;;;;6071457;23;20141;-87
2024/03/01 05:02:56;;;;;;;4.63;3.33;;;17.20;65.00;;;;;;6047772;23;20295;-86
2024/03/01 05:05:24;;;;;;;4.43;3.15;;;17.20;66.00;;;;;;6047885;23;20212;-87
2024/03/01 05:07:50;;;;;;;4.95;3.08;;;17.20;65.10;;;;;;6047759;23;20168;-86
2024/03/01 05:10:22;;;;;;;4.25;3.05;;;17.20;65.10;;;;;;6071573;23;20133;-87
2024/03/01 05:12:49;;;;;;;4.00;2.70;;;17.20;65.40;;;;;;6048962;23;20161;-86
2024/03/01 05:15:15;;;;;;;5.15;3.40;;;17.20;65.40;;;;;;6024520;23;20569;-87
2024/03/01 05:17:41;;;;;;;5.30;3.30;;;17.10;65.20;;;;;;6023994;23;20147;-87
2024/03/01 05:20:10;;;;;;;4.68;3.03;;;17.20;65.30;;;;;;6023911;23;20145;-88
2024/03/01 05:22:37;;;;;;;4.80;3.17;;;17.10;65.40;;;;;;6072019;23;20196;-87
2024/03/01 05:25:14;;;;;;;4.80;3.47;;;17.20;65.40;;;;;;6024150;23;20171;-86
2024/03/01 05:27:43;;;;;;;5.30;3.47;;;17.10;65.10;;;;;;6049368;23;20152;-86
2024/03/01 05:30:12;;;;;;;5.35;3.53;;;17.10;65.30;;;;;;6024780;23;20148;-87
2024/03/01 05:32:42;;;;;;;5.38;3.60;;;17.20;65.30;;;;;;6048041;23;20155;-87
2024/03/01 05:35:09;;;;;;;4.28;3.30;;;17.10;65.20;;;;;;6047678;23;20156;-88
2024/03/01 05:37:35;;;;;;;4.32;3.10;;;17.20;65.10;;;;;;6071378;23;20472;-87
2024/03/01 05:40:03;;;;;;;6.05;3.50;;;17.10;65.10;;;;;;6071398;23;20160;-86
2024/03/01 05:42:29;;;;;;;4.60;3.42;;;17.20;65.10;;;;;;6047136;23;20212;-88
2024/03/01 05:44:55;;;;;;;4.18;3.40;;;17.10;65.40;;;;;;6047496;23;20597;-86
2024/03/01 05:47:21;;;;;;;5.25;3.20;;;17.10;65.40;;;;;;6047435;23;20176;-87
2024/03/01 05:49:47;;;;;;;5.43;3.60;;;17.20;65.00;;;;;;6047390;23;20148;-87
2024/03/01 05:52:13;;;;;;;4.88;3.38;;;17.20;65.20;;;;;;6023771;23;20164;-86
2024/03/01 05:54:39;;;;;;;5.35;3.30;;;17.20;65.10;;;;;;6046792;23;20133;-87
2024/03/01 05:57:04;;;;;;;5.97;3.38;;;17.10;65.00;;;;;;6023505;23;20224;-88
2024/03/01 05:59:30;;;;;;;4.88;3.47;;;17.10;65.00;;;;;;5989109;23;20689;-85
2024/03/01 06:02:00;;;;;;;4.63;3.42;;;17.20;65.10;;;;;;5989207;23;20681;-87
2024/03/01 06:04:26;;;;;;;5.03;3.50;;;17.10;65.40;;;;;;5966029;23;20161;-86
2024/03/01 06:06:52;;;;;;;4.50;3.60;;;17.10;65.30;;;;;;5989272;23;20177;-87
2024/03/01 06:09:19;;;;;;;5.70;3.53;;;17.10;65.40;;;;;;5989404;23;20154;-86
2024/03/01 06:11:45;;;;;;;4.82;3.42;;;17.10;65.40;;;;;;6036413;23;20142;-88
2024/03/01 06:14:13;;;;;;;5.75;3.67;;;17.10;65.20;;;;;;6036424;23;20238;-88
2024/03/01 06:16:46;;;;;;;4.25;3.13;;;17.10;65.20;;;;;;5989158;23;20205;-87
2024/03/01 06:19:12;;;;;;;5.07;3.50;;;17.20;65.40;;;;;;5967580;23;20186;-86
2024/03/01 06:21:38;;;;;;;4.93;3.20;;;17.10;65.20;;;;;;5989177;23;20665;-87
2024/03/01 06:24:05;;;;;;;5.35;3.58;;;17.10;65.20;;;;;;6012474;23;20170;-86
2024/03/01 06:26:30;;;;;;;4.78;3.33;;;17.10;65.10;;;;;;5989276;23;20682;-86
2024/03/01 06:28:56;;;;;;;5.53;3.85;;;17.10;65.30;;;;;;6012791;23;20138;-86
2024/03/01 06:31:22;;;;;;;5.10;3.67;;;17.10;65.00;;;;;;6063194;23;20191;-87
2024/03/01 06:33:57;;;;;;;5.88;3.42;;;17.10;65.40;;;;;;6070722;23;20173;-87
2024/03/01 06:36:22;;;;;;;4.60;3.40;;;17.10;65.20;;;;;;6096146;23;20143;-87
2024/03/01 06:38:48;;;;;;;5.10;3.60;;;17.10;65.10;;;;;;6047320;23;20133;-86
2024/03/01 06:41:14;;;;;;;5.20;3.42;;;17.10;65.40;;;;;;6047055;23;20145;-87
2024/03/01 06:43:40;;;;;;;4.72;3.60;;;17.10;65.20;;;;;;6023307;23;20184;-87
2024/03/01 06:46:07;;;;;;;5.50;3.65;;;17.10;65.20;;;;;;6046630;23;20243;-88
2024/03/01 06:48:33;;;;;;;5.57;3.80;;;17.10;65.10;;;;;;6046747;23;20184;-86
2024/03/01 06:50:59;;;;;;;5.63;4.03;;;17.10;65.20;;;;;;6047073;23;20631;-84
2024/03/01 06:53:26;;;;;;;5.20;3.60;;;17.10;65.00;;;;;;6046254;23;20141;-86
2024/03/01 06:55:55;;;;;;;6.43;3.85;;;17.20;65.10;;;;;;6047101;23;20137;-86
2024/03/01 06:58:21;;;;;;;5.13;3.53;;;17.10;65.20;;;;;;6023599;23;20192;-85
2024/03/01 07:00:47;;;;;;;7.40;3.88;;;17.10;65.10;;;;;;6046920;23;20831;-87
2024/03/01 07:03:14;;;;;;;5.43;3.67;;;17.10;65.20;;;;;;6023312;23;20263;-86
2024/03/01 07:05:40;;;;;;;5.68;3.50;;;17.10;64.90;;;;;;6070773;23;20134;-85
2024/03/01 07:08:06;;;;;;;5.97;3.72;;;17.20;64.90;;;;;;6023078;23;20204;-86
2024/03/01 07:10:33;;;;;;;6.05;3.90;;;17.20;64.70;;;;;;6023270;23;20161;-85
2024/03/01 07:13:02;;;;;;;4.72;3.55;;;17.20;64.60;;;;;;6023324;23;20588;-86
2024/03/01 07:15:31;;;;;;;5.35;3.50;;;17.20;64.00;;;;;;5998575;23;20159;-86
2024/03/01 07:17:57;;;;;;;4.57;3.35;;;17.30;64.10;;;;;;6024077;23;20153;-87
2024/03/01 07:20:23;;;;;;;4.93;3.70;;;17.30;63.80;;;;;;6047161;23;20137;-86
2024/03/01 07:22:49;;;;;;;4.88;3.53;;;17.30;63.70;;;;;;6046920;23;20185;-87
2024/03/01 07:25:16;;;;;;;5.90;3.92;;;17.30;64.10;;;;;;6070692;23;20446;-86
2024/03/01 07:27:42;;;;;;;5.88;3.97;;;17.30;64.00;;;;;;6047517;23;20216;-86
2024/03/01 07:30:09;;;;;;;6.10;3.72;;;17.30;63.80;;;;;;6024238;23;20238;-88
2024/03/01 07:32:35;;;;;;;5.05;3.70;;;17.30;63.50;;;;;;6049400;23;20133;-86
2024/03/01 07:35:04;;;;;;;4.97;3.83;;;17.40;63.50;;;;;;6072447;23;20161;-87
2024/03/01 07:37:33;;;;;;;5.57;3.33;;;17.40;63.30;;;;;;6025193;23;20479;-86
2024/03/01 07:39:59;;;;;;;5.40;3.72;;;17.30;64.00;;;;;;6025702;23;20151;-86
2024/03/01 07:42:29;;;;;;;4.75;3.63;;;17.30;64.10;;;;;;6024775;23;20180;-86
2024/03/01 07:44:55;;;;;;;5.72;3.78;;;17.30;63.80;;;;;;6000439;23;20535;-86
2024/03/01 07:47:24;;;;;;;4.47;3.45;;;17.30;64.10;;;;;;6048264;23;20149;-86
2024/03/01 07:49:50;;;;;;;5.47;3.50;;;17.30;64.00;;;;;;6026082;23;20148;-87
2024/03/01 07:52:16;;;;;;;5.32;3.53;;;17.20;63.80;;;;;;6048459;23;20137;-88
2024/03/01 07:54:42;;;;;;;5.43;3.90;;;17.30;64.30;;;;;;6048027;23;20569;-86
2024/03/01 07:57:07;;;;;;;4.45;3.25;;;17.30;63.80;;;;;;6072166;23;20188;-88
2024/03/01 07:59:33;;;;;;;4.13;3.35;;;17.30;63.80;;;;;;6048173;23;20487;-86
2024/03/01 08:01:59;;;;;;;6.22;3.97;;;17.30;64.10;;;;;;6048264;23;20263;-86
2024/03/01 08:04:26;;;;;;;4.43;3.35;;;17.30;63.80;;;;;;6024647;23;20153;-87
2024/03/01 08:06:52;;;;;;;4.55;3.30;;;17.30;63.70;;;;;;6025308;23;20137;-87
2024/03/01 08:09:21;;;;;;;6.82;3.40;;;17.30;63.80;;;;;;6024747;23;20264;-86
2024/03/01 08:11:47;;;;;;;5.88;3.88;;;17.30;64.00;;;;;;6072234;23;20151;-87
2024/03/01 08:14:22;;;;;;;5.03;3.50;;;17.30;63.80;;;;;;6096351;23;20464;-86
2024/03/01 08:16:51;;;;;;;5.90;3.80;;;17.30;63.70;;;;;;6049160;23;20140;-86
2024/03/01 08:19:17;;;;;;;5.05;3.58;;;17.30;63.70;;;;;;6024853;23;20149;-86
2024/03/01 08:21:43;;;;;;;5.10;3.55;;;17.30;63.60;;;;;;6047646;23;20253;-85
2024/03/01 08:24:09;;;;;;;4.57;3.20;;;17.30;63.70;;;;;;6047704;23;20164;-85
2024/03/01 08:26:38;;;;;;;4.70;3.30;;;17.30;63.30;;;;;;6049576;23;20596;-86
2024/03/01 08:29:04;;;;;;;5.60;3.65;;;17.30;63.60;;;;;;6025207;23;20148;-86
2024/03/01 08:31:35;;;;;;;5.00;3.10;;;17.30;63.60;;;;;;6073161;23;20235;-86
2024/03/01 08:34:09;;;;;;;5.20;3.92;;;17.30;64.00;;;;;;6049982;23;20236;-85
2024/03/01 08:36:37;;;;;;;5.13;3.50;;;17.20;64.00;;;;;;6049736;23;20569;-85
2024/03/01 08:39:15;;;;;;;6.00;3.65;;;17.20;64.00;;;;;;6025710;23;20157;-87
2024/03/01 08:41:44;;;;;;;4.97;3.22;;;17.20;63.70;;;;;;6027673;23;20207;-85
2024/03/01 08:47:35;;;;;;;4.43;3.40;;;17.20;63.80;;;;;;5983166;24;20163;-86
2024/03/01 08:50:36;;;;;;;5.43;3.55;;;17.20;63.70;;;;;;5958308;24;20159;-85
2024/03/01 08:53:13;;;;;;;4.72;3.17;;;17.30;63.60;;;;;;5958018;24;20165;-86
2024/03/01 08:55:40;;;;;;;4.80;3.42;;;17.30;63.30;;;;;;5936581;24;20232;-85
2024/03/01 08:58:14;;;;;;;5.93;3.60;;;17.30;63.60;;;;;;5933171;23;20285;-87
2024/03/01 09:00:49;;;;;;;4.75;3.13;;;17.30;63.60;;;;;;5962850;23;20153;-85
2024/03/01 09:03:20;;;;;;;5.85;3.67;;;17.30;63.50;;;;;;5963665;23;20174;-87
2024/03/01 09:05:46;;;;;;;4.65;3.33;;;17.30;63.30;;;;;;5962710;23;20158;-85
2024/03/01 09:08:14;;;;;;;4.32;3.40;;;17.30;63.60;;;;;;5986696;23;20154;-87
2024/03/01 09:10:42;;;;;;;4.90;3.47;;;17.30;63.70;;;;;;5963756;23;20216;-87
2024/03/01 09:13:09;;;;;;;4.95;3.33;;;17.30;63.60;;;;;;5964865;23;20138;-86
2024/03/01 09:15:44;;;;;;;4.90;3.40;;;17.30;63.80;;;;;;5963927;23;20147;-86
2024/03/01 09:18:45;;;;;;;4.75;3.20;;;17.30;63.40;;;;;;5986846;23;20160;-87
2024/03/01 09:21:34;;;;;;;5.10;3.53;;;17.30;63.30;;;;;;5985461;23;20249;-86
2024/03/01 09:24:02;;;;;;;5.93;3.60;;;17.30;63.60;;;;;;6002092;23;20628;-87
2024/03/01 09:26:42;;;;;;;5.20;3.72;;;17.30;63.90;;;;;;6048028;23;20144;-87
2024/03/01 09:29:08;;;;;;;5.32;3.38;;;17.30;63.90;;;;;;6023510;23;20161;-86
2024/03/01 09:31:33;;;;;;;5.00;3.58;;;17.20;63.70;;;;;;6024976;23;20227;-87
2024/03/01 09:34:14;;;;;;;4.38;3.30;;;17.20;63.80;;;;;;6048734;23;20157;-86
2024/03/01 09:36:40;;;;;;;6.40;3.90;;;17.30;64.20;;;;;;6051738;23;20128;-87
2024/03/01 09:39:16;;;;;;;;;;;;;;;;;;;;;
2024/03/01 09:42:15;;;;;;;5.18;3.72;;;17.30;63.60;;;;;;5962200;23;20571;-87
2024/03/01 09:45:19;;;;;;;5.95;3.80;;;17.30;63.50;;;;;;5926910;24;20168;-88
2024/03/01 09:48:03;;;;;;;5.38;3.47;;;17.40;63.70;;;;;;5907963;24;21041;-87
2024/03/01 09:50:48;;;;;;;4.78;3.50;;;17.30;63.80;;;;;;5910128;24;20183;-88
2024/03/01 09:53:54;;;;;;;4.05;3.33;;;17.30;63.50;;;;;;5910521;24;20160;-88
2024/03/01 09:56:56;;;;;;;5.35;3.63;;;17.40;63.30;;;;;;5914047;24;20855;-88
2024/03/01 09:59:56;;;;;;;4.28;3.15;;;17.30;63.20;;;;;;5889905;24;20201;-88
2024/03/01 10:03:01;;;;;;;5.70;3.47;;;17.40;63.20;;;;;;5930242;24;20252;-87
2024/03/01 10:05:50;;;;;;;4.63;3.70;;;17.40;63.10;;;;;;5953664;24;20156;-87
2024/03/01 10:08:25;;;;;;;5.25;3.53;;;17.40;63.40;;;;;;5878131;24;20153;-87
2024/03/01 10:11:12;;;;;;;5.25;3.50;;;17.30;63.60;;;;;;5877643;24;20225;-87
2024/03/01 10:14:08;;;;;;;6.55;3.55;;;17.30;63.60;;;;;;5933306;24;20631;-88
2024/03/01 10:17:07;;;;;;;5.97;3.78;;;17.30;63.20;;;;;;5930708;24;20164;-88
2024/03/01 10:19:52;;;;;;;5.55;3.72;;;17.30;63.40;;;;;;5954764;24;20140;-87
2024/03/01 10:22:29;;;;;;;4.93;3.47;;;17.30;63.40;;;;;;5897531;24;20197;-85
2024/03/01 10:25:23;;;;;;;5.13;3.47;;;17.30;63.60;;;;;;5876331;24;20168;-87
2024/03/01 10:27:52;;;;;;;4.70;3.50;;;17.30;63.40;;;;;;5857618;24;20161;-87
2024/03/01 10:30:22;;;;;;;5.00;3.53;;;17.40;63.40;;;;;;5877006;24;20157;-86
2024/03/01 10:33:11;;;;;;;5.05;3.47;;;17.40;63.60;;;;;;5853872;24;20255;-88
2024/03/01 10:35:53;;;;;;;5.50;3.67;;;17.40;63.60;;;;;;5852520;24;20233;-87
2024/03/01 10:38:53;;;;;;;5.55;3.85;;;17.40;63.50;;;;;;5851386;24;20165;-87
2024/03/01 10:41:58;;;;;;;5.57;3.88;;;17.40;63.40;;;;;;5897606;24;20295;-87
2024/03/01 10:44:45;;;;;;;6.38;3.75;;;17.30;63.60;;;;;;5898332;24;20228;-88
2024/03/01 10:47:23;;;;;;;4.68;2.83;;;17.30;63.70;;;;;;5901519;24;20155;-86
2024/03/01 10:50:23;;;;;;;5.05;3.47;;;17.30;63.20;;;;;;5956376;24;20155;-87
2024/03/01 10:53:18;;;;;;;5.10;3.55;;;17.40;63.10;;;;;;5988423;23;20162;-87
2024/03/01 10:56:29;;;;;;;4.88;3.35;;;17.40;63.30;;;;;;5946600;23;20154;-87
2024/03/01 10:59:11;;;;;;;4.93;3.67;;;17.40;63.20;;;;;;5925793;24;20188;-86
2024/03/01 11:01:50;;;;;;;5.22;3.30;;;17.40;62.90;;;;;;5897826;24;20185;-87
2024/03/01 11:04:44;;;;;;;5.22;3.47;;;17.30;63.10;;;;;;5874832;24;20310;-87
2024/03/01 11:07:46;;;;;;;5.80;3.40;;;17.40;63.30;;;;;;5896870;24;20677;-86
2024/03/01 11:10:44;;;;;;;5.03;3.50;;;17.40;63.40;;;;;;5920646;24;20167;-87
2024/03/01 11:13:17;;;;;;;5.28;3.75;;;17.40;63.30;;;;;;5874104;24;20206;-88
2024/03/01 11:16:01;;;;;;;4.60;3.40;;;17.40;63.60;;;;;;5847580;24;20801;-87
2024/03/01 11:18:35;;;;;;;6.72;3.53;;;17.40;63.20;;;;;;5817608;24;20565;-87
2024/03/01 11:21:05;;;;;;;5.32;3.47;;;17.40;63.60;;;;;;5796222;24;20159;-87
2024/03/01 11:23:35;;;;;;;5.35;3.45;;;17.40;63.60;;;;;;5796177;24;20199;-88
2024/03/01 11:26:16;;;;;;;5.63;3.50;;;17.40;63.30;;;;;;5817879;24;20629;-87
2024/03/01 11:28:48;;;;;;;4.47;3.13;;;17.40;63.80;;;;;;5818242;24;20155;-87
2024/03/01 11:31:24;;;;;;;5.18;3.50;;;17.40;63.90;;;;;;5795772;24;20160;-87
2024/03/01 11:34:01;;;;;;;5.38;3.45;;;17.30;63.60;;;;;;5817373;24;20163;-87
2024/03/01 11:36:47;;;;;;;6.38;3.65;;;17.40;63.50;;;;;;5821493;24;20662;-87
2024/03/01 11:39:33;;;;;;;4.82;3.30;;;17.40;63.10;;;;;;5822223;24;20386;-87
2024/03/01 11:42:22;;;;;;;5.20;3.38;;;17.40;63.00;;;;;;5844614;24;20178;-88
2024/03/01 11:45:10;;;;;;;5.55;3.55;;;17.40;63.20;;;;;;5870097;24;20257;-86
2024/03/01 11:47:54;;;;;;;4.75;3.40;;;17.40;63.20;;;;;;5877147;24;20160;-88
2024/03/01 11:50:34;;;;;;;4.63;3.40;;;17.40;63.20;;;;;;5886284;24;20155;-85
2024/03/01 11:53:26;;;;;;;5.22;3.40;;;17.40;63.00;;;;;;5929625;24;20205;-85
2024/03/01 11:56:16;;;;;;;4.57;3.10;;;17.50;63.20;;;;;;5953230;24;20160;-87
2024/03/01 11:59:02;;;;;;;5.50;3.63;;;17.40;63.00;;;;;;5977060;24;20636;-86
2024/03/01 12:01:36;;;;;;;4.85;3.55;;;17.40;63.30;;;;;;5977856;24;20152;-86
2024/03/01 12:04:17;;;;;;;5.40;3.50;;;17.40;63.50;;;;;;5983588;23;20237;-86
2024/03/01 12:07:06;;;;;;;4.60;3.13;;;17.50;63.10;;;;;;6005828;23;20324;-87
2024/03/01 12:09:46;;;;;;;3.95;3.30;;;17.40;63.20;;;;;;5968964;23;20162;-86
2024/03/01 12:12:36;;;;;;;4.85;3.30;;;17.40;62.90;;;;;;6013221;23;20154;-87
2024/03/01 12:15:06;;;;;;;5.25;3.50;;;17.50;62.90;;;;;;6028667;23;20156;-87
2024/03/01 12:17:56;;;;;;;4.90;3.00;;;17.50;62.90;;;;;;6028203;23;20547;-87
2024/03/01 12:20:25;;;;;;;6.78;3.47;;;17.50;63.50;;;;;;6009967;23;20338;-87
2024/03/01 12:23:15;;;;;;;4.63;3.30;;;17.50;62.70;;;;;;6027637;23;20180;-87
2024/03/01 12:25:42;;;;;;;5.05;3.20;;;17.50;62.80;;;;;;6100880;23;20140;-87
2024/03/01 12:28:30;;;;;;;4.97;3.33;;;17.50;62.60;;;;;;6126913;23;20140;-87
2024/03/01 12:31:36;;;;;;;5.47;3.33;;;17.50;62.90;;;;;;6057051;23;20592;-86
2024/03/01 12:34:14;;;;;;;7.03;3.33;;;17.50;62.80;;;;;;6126464;23;20144;-85
2024/03/01 12:36:49;;;;;;;5.97;3.33;;;17.50;62.80;;;;;;6100256;23;20191;-87
2024/03/01 12:39:18;;;;;;;7.53;3.28;;;17.50;62.70;;;;;;6054106;23;20144;-85
2024/03/01 12:42:15;;;;;;;6.55;3.38;;;17.40;62.70;;;;;;6076106;23;20262;-87
2024/03/01 12:44:55;;;;;;;4.90;3.55;;;17.50;63.20;;;;;;6100217;23;20226;-85
2024/03/01 12:47:41;;;;;;;5.18;3.60;;;17.50;63.10;;;;;;6099954;23;20163;-88
2024/03/01 12:50:23;;;;;;;5.28;3.38;;;17.50;62.30;;;;;;6100887;23;20228;-88
2024/03/01 12:53:10;;;;;;;7.60;3.67;;;17.60;62.50;;;;;;6030419;23;20179;-85
2024/03/01 12:56:24;;;;;;;8.27;3.60;;;17.50;62.50;;;;;;6103483;23;20138;-87
2024/03/01 12:59:22;;;;;;;7.18;3.63;;;17.50;62.60;;;;;;6092527;23;20250;-87
2024/03/01 13:02:04;;;;;;;8.10;3.63;;;17.50;62.70;;;;;;6082475;23;20913;-87
2024/03/01 13:04:41;;;;;;;6.68;2.65;;;17.50;62.80;;;;;;6100518;23;20136;-87
2024/03/01 13:07:17;;;;;;;4.88;3.22;;;17.50;62.90;;;;;;6101492;23;20147;-86
2024/03/01 13:09:48;;;;;;;9.73;3.40;;;17.50;62.70;;;;;;6051731;23;20264;-87
2024/03/01 13:12:17;;;;;;;8.18;3.50;;;17.50;63.50;;;;;;6013523;23;20157;-85
2024/03/01 13:15:04;;;;;;;4.43;3.30;;;17.60;62.90;;;;;;5990563;23;20665;-86
2024/03/01 13:17:55;;;;;;;6.95;3.88;;;17.50;62.80;;;;;;5969764;23;20158;-86